Weather reports worldwide

Advertisment
Schmücke, Germany (10552): temperature & dewpoint: 16.06.2018 15:00:00 - 22.06.2018 15:00:00 (CEST)Schmücke, Germany (10552): temperature 5cm & temperature -5cm: 16.06.2018 15:00:00 - 22.06.2018 15:00:00 (CEST)Schmücke, Germany (10552): temperature -20cm & temperature -100cm: 16.06.2018 15:00:00 - 22.06.2018 15:00:00 (CEST)Schmücke, Germany (10552): wind speed & gusts: 16.06.2018 15:00:00 - 22.06.2018 15:00:00 (CEST)Schmücke, Germany (10552): wind direction: 16.06.2018 15:00:00 - 22.06.2018 15:00:00 (CEST)Schmücke, Germany (10552): visibility: 16.06.2018 15:00:00 - 22.06.2018 15:00:00 (CEST)Schmücke, Germany (10552): sunshine duration: 16.06.2018 15:00:00 - 22.06.2018 15:00:00 (CEST)Schmücke, Germany (10552): precipitation: 16.06.2018 15:00:00 - 22.06.2018 15:00:00 (CEST)
Date & Time tt [°C] td [°C] tt 5cm [°C] tt -5cm [°C] tt -20cm [°C] tt -100cm [°C] ff [km/h] ff [kn] fx [km/h] fx [kn] dd vv [km] sd [min] rr [mm]
22.06.2018 15:00:00 7,5 6,3 9,2 13,0 14,3 15,0 17 9 43 23 WNW 24 8 0,3
22.06.2018 14:00:00 5,8 5,2 7,4 11,3 14,4 15,0 16 9 39 21 W 4,3 3 0,7
22.06.2018 13:00:00 4,9 4,4 5,6 10,3 14,6 14,9 19 10 43 23 W 2,9 0 1,5
22.06.2018 12:00:00 4,3 3,9 5,0 10,0 15,0 14,9 20 11 50 27 W 2,9 0 1,4
22.06.2018 11:00:00 3,5 2,7 3,9 9,9 15,4 14,9 26 14 58 32 W 3,7 0 4,2
22.06.2018 10:00:00 4,3 4,0 4,9 10,9 15,7 14,9 23 12 38 20 WSW 0,2 0 2,5
22.06.2018 09:00:00 4,0 3,4 4,3 11,6 15,9 14,9 20 11 32 18 WSW 1,5 0 0,1
22.06.2018 08:00:00 4,1 3,0 4,7 11,7 16,2 14,9 16 8 29 16 SW 8 0 0,0
22.06.2018 07:00:00 3,8 2,9 4,4 11,5 16,5 14,9 15 8 37 20 W 13 0 0,0
22.06.2018 06:00:00 3,8 2,0 4,2 11,6 16,9 14,9 20 11 38 20 W 30 0 0,0
22.06.2018 05:00:00 4,0 2,5 4,2 11,9 17,3 14,9 17 9 36 19 WSW 25 0 0,0
22.06.2018 04:00:00 4,3 2,2 4,4 12,1 17,8 14,9 16 9 33 18 W 40 0 0,0
22.06.2018 03:00:00 4,2 1,9 3,5 12,6 18,3 14,8 15 8 37 20 W 48 0 0,0
22.06.2018 02:00:00 5,0 2,6 4,1 13,6 18,8 14,8 13 7 27 15 W 48 0 0,0
22.06.2018 01:00:00 6,2 2,6 6,2 14,2 19,3 14,8 12 6 32 17 W 68 0 0,0
22.06.2018 00:00:00 6,3 2,1 5,3 14,8 19,9 14,8 8 4 32 17 NW 70 0 0,0
21.06.2018 23:00:00 6,9 1,3 5,8 15,9 20,5 14,8 10 5 28 15 WNW 62 0 0,0
21.06.2018 22:00:00 7,8 0,2 6,3 17,4 21,0 14,8 9 5 29 15 NW 67 8 0,0
21.06.2018 21:00:00 9,6 0,5 8,8 19,4 21,3 14,8 14 7 36 19 NW 59 60 0,0
21.06.2018 20:00:00 11,8 0,2 12,3 21,9 21,4 14,8 18 10 40 22 W 64 60 0,0
21.06.2018 19:00:00 13,4 0,2 14,7 23,6 21,3 14,8 21 11 41 22 W 27 60 0,0
21.06.2018 18:00:00 14,7 2,5 17,2 24,0 21,1 14,7 18 10 44 24 WNW 28 46 0,0
21.06.2018 17:00:00 14,9 6,0 17,7 24,1 21,0 14,7 18 10 46 25 WNW 36 43 0,0
21.06.2018 16:00:00 14,7 11,2 17,0 23,0 21,0 14,7 21 11 46 25 W 18 23 0,0
21.06.2018 15:00:00 11,9 11,5 13,8 21,6 21,0 14,7 19 11 49 26 W 4,2 0 0,7
21.06.2018 14:00:00 15,0 11,4 16,1 23,7 20,7 14,7 29 16 59 32 W 35 4 0,0
21.06.2018 13:00:00 17,8 9,9 18,5 25,3 20,2 14,7 24 13 54 29 WSW 53 36 0,0
21.06.2018 12:00:00 19,4 10,2 21,9 23,9 19,8 14,7 24 13 54 29 WSW 26 47 0,0
21.06.2018 11:00:00 18,7 11,7 20,8 22,3 19,5 14,7 27 14 51 27 WSW 32 40 0,0
21.06.2018 10:00:00 18,9 12,9 21,1 21,1 19,2 14,6 26 14 47 26 SW 32 60 0,0
21.06.2018 09:00:00 17,8 13,0 19,9 19,2 19,2 14,6 26 14 39 21 SW 18 60 0,0
21.06.2018 08:00:00 16,7 12,2 18,1 17,9 19,4 14,6 21 11 37 20 SW 25 60 0,0
21.06.2018 07:00:00 15,6 11,4 14,6 17,1 19,7 14,6 16 9 26 14 SW 34 56 0,0
21.06.2018 06:00:00 15,4 11,1 14,0 17,1 20,1 14,6 15 8 28 15 WSW 37 3 0,0
21.06.2018 05:00:00 15,8 11,5 13,3 17,4 20,5 14,6 13 7 22 12 WSW 32 0 0,0
21.06.2018 04:00:00 16,2 11,6 13,5 17,9 20,9 14,6 13 7 26 14 WSW 37 0 0,0
21.06.2018 03:00:00 16,4 11,6 14,0 18,4 21,4 14,6 13 7 26 14 WSW 38 0 0,0
21.06.2018 02:00:00 16,2 11,2 13,7 19,1 21,9 14,6 18 10 25 14 W 40 0 0,0
21.06.2018 01:00:00 16,1 11,3 13,4 20,0 22,4 14,6 15 8 21 11 W 45 0 0,0
21.06.2018 00:00:00 16,6 11,7 14,3 21,1 22,8 14,6 12 6 17 9 W 47 0 0,0
20.06.2018 23:00:00 17,3 11,7 14,9 22,3 23,3 14,6 13 7 18 10 W 54 0 0,0
20.06.2018 22:00:00 18,3 11,9 16,1 23,9 23,6 14,6 12 6 19 10 WSW 48 7 0,0
20.06.2018 21:00:00 20,0 12,0 18,5 25,9 23,8 14,6 9 5 19 11 SW 48 45 0,0
20.06.2018 20:00:00 22,1 11,3 22,7 28,2 23,6 14,6 9 5 30 16 SW 47 54 0,0
20.06.2018 19:00:00 22,8 11,4 24,5 30,1 23,3 14,6 16 9 31 17 SW 43 60 0,0
20.06.2018 18:00:00 23,2 12,2 25,8 31,1 22,7 14,6 15 8 35 19 SW 33 59 0,0
20.06.2018 17:00:00 23,3 12,4 26,7 31,5 21,9 14,5 16 8 37 20 SW 29 59 0,0
20.06.2018 16:00:00 23,4 12,9 27,6 31,2 21,0 14,5 16 9 31 17 SW 31 58 0,0
20.06.2018 15:00:00 22,2 13,6 27,1 30,0 20,2 14,5 16 9 34 18 SSW 38 55 0,0
20.06.2018 14:00:00 21,7 14,1 27,9 28,1 19,4 14,5 16 8 32 18 SSW 25 60 0,0
20.06.2018 13:00:00 19,5 12,9 23,9 25,3 18,7 14,5 16 9 32 18 SW 44 29 0,0
20.06.2018 12:00:00 18,9 12,6 21,0 24,3 18,1 14,5 17 9 29 16 SW 37 39 0,0
20.06.2018 11:00:00 18,5 12,9 22,2 21,9 17,6 14,5 17 9 27 15 SSW 38 43 0,0
20.06.2018 10:00:00 16,8 12,2 18,2 19,4 17,4 14,5 17 9 29 16 SSW 37 23 0,0
20.06.2018 09:00:00 16,5 12,8 17,7 18,2 17,3 14,5 11 6 22 12 S 28 46 0,0
20.06.2018 08:00:00 14,9 13,2 15,7 16,6 17,3 14,5 4 2 12 7 SSE 17 12 0,0
20.06.2018 07:00:00 13,4 12,5 13,7 15,7 17,5 14,5 6 3 11 6 E 11 1 0,0
20.06.2018 06:00:00 12,7 12,1 12,8 15,2 17,7 14,5 10 5 14 7 ENE 8 0 0,0
20.06.2018 05:00:00 12,4 11,9 11,8 15,0 18,0 14,5 10 6 14 8 NE 5 0 0,0
20.06.2018 04:00:00 12,7 12,1 11,7 15,4 18,3 14,5 10 5 15 8 NE 5 0 0,0
20.06.2018 03:00:00 12,8 11,9 11,4 15,8 18,7 14,5 9 5 14 7 NNE 9 0 0,0
20.06.2018 02:00:00 12,9 11,9 11,2 16,4 19,0 14,5 9 5 12 7 NNE 11 0 0,0
20.06.2018 01:00:00 13,1 12,1 12,1 16,9 19,4 14,5 10 6 13 7 NNE 13 0 0,0
20.06.2018 00:00:00 13,3 11,9 12,1 17,6 19,7 14,5 8 5 13 7 N 18 0 0,0
19.06.2018 23:00:00 13,5 11,8 12,6 18,5 20,1 14,5 9 5 13 7 NNW 27 0 0,0
19.06.2018 22:00:00 14,0 11,9 12,4 19,6 20,3 14,5 6 3 9 5 NW 30 8 0,0
19.06.2018 21:00:00 15,5 12,4 14,2 21,1 20,4 14,4 5 3 18 10 WNW 34 31 0,0
19.06.2018 20:00:00 17,1 12,5 17,3 22,6 20,3 14,4 11 6 22 12 W 47 32 0,0
19.06.2018 19:00:00 17,1 12,0 18,1 23,5 20,1 14,4 15 8 27 15 W 39 2 0,0
19.06.2018 18:00:00 17,4 12,1 18,7 24,3 19,8 14,4 14 8 29 15 W 42 13 0,0
19.06.2018 17:00:00 17,9 12,3 20,2 23,9 19,5 14,4 13 7 27 15 WSW 49 3 0,0
19.06.2018 16:00:00 17,3 11,8 18,7 23,9 19,2 14,4 15 8 29 15 WSW 43 5 0,0
19.06.2018 15:00:00 17,6 12,1 19,8 22,9 18,8 14,4 12 7 25 14 W 46 1 0,0
19.06.2018 14:00:00 17,6 11,7 19,4 23,2 18,3 14,4 15 8 28 15 SW 39 4 0,0
19.06.2018 13:00:00 17,4 11,0 20,2 22,9 17,8 14,4 14 8 26 14 WSW 40 12 0,0
19.06.2018 12:00:00 16,6 10,7 18,3 21,5 17,3 14,4 9 5 22 12 W 49 26 0,0
19.06.2018 11:00:00 15,4 10,5 16,5 19,5 17,1 14,4 8 5 30 16 W 35 38 0,0
19.06.2018 10:00:00 14,0 10,7 15,1 17,4 17,0 14,4 16 9 32 18 W 23 17 0,0
19.06.2018 09:00:00 12,6 11,6 13,3 16,2 17,1 14,4 16 9 27 15 SW 7 0 0,0
19.06.2018 08:00:00 12,0 11,4 12,7 15,7 17,2 14,4 14 8 27 15 WSW 4,5 0 0,0
19.06.2018 07:00:00 11,7 11,0 12,1 15,5 17,3 14,4 17 9 27 14 WSW 5 0 0,0
19.06.2018 06:00:00 11,8 10,6 12,1 15,3 17,5 14,4 9 5 17 9 WSW 13 0 0,0
19.06.2018 05:00:00 11,8 10,5 11,9 15,2 17,8 14,4 13 7 19 10 WSW 15 0 0,0
19.06.2018 04:00:00 11,7 10,3 11,6 15,0 18,1 14,3 14 8 33 18 WSW 16 0 0,0
19.06.2018 03:00:00 11,4 9,7 10,6 15,3 18,5 14,3 19 11 27 15 WSW 20 0 0,0
19.06.2018 02:00:00 11,3 9,5 10,2 15,7 18,8 14,3 10 6 20 11 WSW 25 0 0,0
19.06.2018 01:00:00 12,0 9,6 11,0 16,2 19,2 14,3 8 4 29 16 SW 35 0 0,0
19.06.2018 00:00:00 12,3 9,5 11,3 16,9 19,7 14,3 23 12 33 18 WSW 32 0 0,0
18.06.2018 23:00:00 12,6 9,4 11,5 17,7 20,1 14,3 22 12 33 18 WSW 35 0 0,0
18.06.2018 22:00:00 12,8 9,4 11,8 18,8 20,4 14,3 18 10 29 16 WSW 39 6 0,0
18.06.2018 21:00:00 13,4 9,1 12,7 20,3 20,7 14,3 16 9 32 17 WSW 36 28 0,0
18.06.2018 20:00:00 14,3 8,8 14,6 22,3 20,7 14,3 20 11 29 16 SW 45 20 0,0
18.06.2018 19:00:00 15,2 9,7 16,9 23,1 20,7 14,3 13 7 29 16 WSW 34 3 0,0
18.06.2018 18:00:00 15,1 9,4 16,7 24,2 20,5 14,3 17 9 34 18 SW 43 0 0,0
18.06.2018 17:00:00 15,7 9,2 17,7 25,4 20,1 14,3 16 9 40 21 WSW 47 17 0,0
18.06.2018 16:00:00 16,2 8,8 18,3 26,5 19,6 14,3 18 10 36 19 WSW 38 44 0,0
18.06.2018 15:00:00 16,6 9,0 19,5 25,0 19,0 14,3 18 10 36 19 WSW 48 15 0,0
18.06.2018 14:00:00 16,1 8,6 20,9 25,2 18,2 14,3 16 9 43 23 WSW 39 31 0,0
18.06.2018 13:00:00 15,7 8,5 19,7 23,9 17,6 14,3 20 11 40 22 SW 46 50 0,0
18.06.2018 12:00:00 13,8 6,6 16,5 21,8 17,1 14,3 24 13 37 20 SW 36 39 0,0
18.06.2018 11:00:00 13,4 7,5 15,7 19,6 16,8 14,3 16 8 34 18 WSW 36 24 0,0
18.06.2018 10:00:00 12,6 8,2 15,9 17,8 16,6 14,3 18 10 29 16 SW 26 26 0,0
18.06.2018 09:00:00 11,8 7,8 14,2 16,2 16,5 14,3 16 9 27 14 WSW 29 50 0,0
18.06.2018 08:00:00 10,6 8,3 12,3 14,8 16,7 14,3 10 5 24 13 WSW 24 29 0,0
18.06.2018 07:00:00 9,5 7,1 8,8 14,0 16,9 14,3 11 6 17 9 W 28 27 0,0
18.06.2018 06:00:00 9,4 8,4 9,7 14,2 17,2 14,3 11 6 19 10 W 10 0 0,0
18.06.2018 05:00:00 9,8 8,7 9,7 14,7 17,5 14,3 13 7 24 13 W 9 0 0,0
18.06.2018 04:00:00 10,3 8,9 10,4 15,2 17,8 14,3 12 7 18 10 WSW 17 0 0,0
18.06.2018 03:00:00 10,7 8,5 10,5 15,5 18,1 14,2 8 4 17 9 SW 27 0 0,0
18.06.2018 02:00:00 11,2 8,4 10,8 15,9 18,4 14,2 11 6 17 9 W 36 0 0,0
18.06.2018 01:00:00 11,6 8,6 10,9 16,3 18,7 14,2 10 5 18 10 W 41 0 0,0
18.06.2018 00:00:00 12,1 8,0 11,4 17,0 19,1 14,2 12 6 17 9 WSW 44 0 0,0
17.06.2018 23:00:00 12,3 7,8 11,2 17,9 19,4 14,2 8 5 15 8 W 43 0 0,0
17.06.2018 22:00:00 13,1 7,7 12,9 18,7 19,6 14,2 8 4 13 7 W 43 0 0,0
17.06.2018 21:00:00 13,7 7,6 13,4 19,7 19,8 14,2 8 5 17 9 W 61 0 0,0
17.06.2018 20:00:00 14,3 7,7 14,2 20,8 19,9 14,2 8 5 21 11 W 65 0 0,0
17.06.2018 19:00:00 14,9 7,1 15,0 22,2 19,9 14,2 12 7 30 16 WSW 66 13 0,0
17.06.2018 18:00:00 15,7 6,6 16,0 24,1 19,6 14,2 19 10 34 18 W 70 38 0,0
17.06.2018 17:00:00 16,6 8,1 19,2 24,0 19,2 14,2 19 10 37 20 WSW 48 30 0,0
17.06.2018 16:00:00 15,9 8,3 17,4 23,9 18,8 14,2 21 12 38 20 W 70 22 0,0
17.06.2018 15:00:00 16,0 8,9 17,9 24,2 18,2 14,2 16 9 36 19 W 46 11 0,0
17.06.2018 14:00:00 16,7 8,0 18,2 24,5 17,6 14,2 20 11 39 21 SW 38 36 0,0
17.06.2018 13:00:00 17,2 9,0 21,4 22,5 17,1 14,2 19 10 37 20 SW 30 39 0,0
17.06.2018 12:00:00 15,1 10,2 16,2 20,0 16,8 14,2 16 9 34 18 SW 20 23 0,0
17.06.2018 11:00:00 14,3 11,1 16,7 17,9 16,6 14,2 13 7 22 12 SW 15 0 0,0
17.06.2018 10:00:00 13,7 11,4 14,9 17,0 16,4 14,2 10 5 22 12 WSW 10 1 0,0
17.06.2018 09:00:00 14,3 11,7 15,2 16,4 16,4 14,2 8 4 17 9 WSW 14 27 0,0
17.06.2018 08:00:00 14,0 10,6 14,4 14,7 16,6 14,2 9 5 14 8 SW 17 35 0,0
17.06.2018 07:00:00 12,9 10,2 11,3 14,0 16,8 14,2 9 5 20 11 WSW 20 2 0,0
17.06.2018 06:00:00 12,5 9,9 11,0 14,0 17,1 14,2 12 6 19 10 W 18 0 0,0
17.06.2018 05:00:00 13,0 9,6 11,2 14,2 17,4 14,2 17 9 25 13 WSW 16 0 0,0
17.06.2018 04:00:00 13,3 9,5 10,6 14,7 17,8 14,2 9 5 21 11 WSW 18 0 0,0
17.06.2018 03:00:00 13,7 9,2 11,9 15,2 18,2 14,2 13 7 23 12 WSW 21 0 0,0
17.06.2018 02:00:00 13,9 9,1 12,0 15,7 18,5 14,2 12 7 20 11 SW 23 0 0,0
17.06.2018 01:00:00 13,8 9,0 12,2 16,4 18,9 14,2 11 6 16 9 SW 24 0 0,0
17.06.2018 00:00:00 13,8 9,1 11,8 17,1 19,3 14,2 11 6 16 8 SW 23 0 0,0
16.06.2018 23:00:00 14,4 9,2 12,0 18,1 19,7 14,2 9 5 15 8 SW 24 0 0,0
16.06.2018 22:00:00 14,9 9,3 13,1 19,4 20,0 14,2 11 6 19 10 SW 25 6 0,0
16.06.2018 21:00:00 16,3 9,2 14,9 21,1 20,1 14,2 9 5 29 15 SW 30 49 0,0
16.06.2018 20:00:00 18,0 9,3 19,5 22,5 20,1 14,2 20 11 29 16 SSW 30 31 0,0
16.06.2018 19:00:00 17,8 9,1 18,2 23,4 20,0 14,2 17 9 23 13 SSW 34 14 0,0
16.06.2018 18:00:00 18,2 9,0 19,4 24,0 19,7 14,2 16 8 23 13 SW 31 12 0,0
16.06.2018 17:00:00 18,3 9,6 19,4 25,3 19,2 14,2 12 7 24 13 S 28 19 0,0
16.06.2018 16:00:00 19,2 9,3 22,4 25,9 18,6 14,2 11 6 31 17 SSW 28 38 0,0
16.06.2018 15:00:00 18,8 9,2 21,1 25,2 18,0 14,2 12 6 27 15 SW 32 36 0,0

tt = temperature
td = dewpoint
tt 5cm = temperature 5cm
tt -5cm = temperature -5cm
tt -20cm = temperature -20cm
tt -100cm = temperature -100cm
ff = wind speed
fx = gusts
dd = wind direction
vv = visibility
sd = sunshine duration
rr = precipitation

Next stations